Lithgow, Australia

3:04 AM AEDT on December 07, 2016 (GMT +1100)
River Lett | | Change Station

Elev 2579 ft 33.53 °S, 150.19 °E | Updated 4 minutes ago

Partly Cloudy
Partly Cloudy
55.9 °F
Feels Like 55.9 °F
N
2.2
Wind Variable Wind from West
Gusts 3.1 mph

Today
High -- | Low -- °F
--% Chance of Precip.
Yesterday
High -- | Low -- °F
Precip. -- in
Pressure 29.95 in
Visibility 6.2 miles
Clouds Scattered Clouds 2700 ft
Scattered Clouds 3600 ft
Mostly Cloudy 7000 ft
Dew Point 56 °F
Humidity 99%
Rainfall 0.00 in
Snow Depth Not available.
5:42 AM 7:59 PM
Waxing Crescent, 43% visible
METAR YSRI 061530Z AUTO 22006KT 9999 SCT027 SCT036 BKN070 18/17 Q1014
Pressure 29.95 in
Visibility 6.2 miles
Clouds Scattered Clouds 2700 ft
Scattered Clouds 3600 ft
Mostly Cloudy 7000 ft
Dew Point 56 °F
Humidity 99%
Rainfall 0.00 in
Snow Depth Not available.
5:42 AM 7:59 PM
Waxing Crescent, 43% visible
METAR YSRI 061530Z AUTO 22006KT 9999 SCT027 SCT036 BKN070 18/17 Q1014

10-Day Weather Forecast

×

Almanac

Astronomy

Dec. 07, 2016 Rise Set
Actual Time
Civil Twilight
Nautical Twilight
Astronomical Twilight
Moon
Length of Visible Light
Length of Day
Tomorrow will be .
, % of the Moon is Illuminated

Today's Extremes

Country Highs Country Lows

Community

WunderPhotos

Upload Photos

1,955,965 photos uploaded!

WunderBlog® & News

Nearby

Air Quality

  Air Quality AQ Index Pollutant
Not available.

Snow Depth

Station Depth Elevation

Earthquake Activity

City Distance Mag. Time & Date
Minimum magnitude displayed is 2.5.

Coastal Water Temperatures

Place Temperature

Stations

Nearby Weather Stations

Station Location Temp. Windchill Dew Point Humidity Wind Precip. Elev Updated Type